sensor_id;sensor_type;location;lat;lon;timestamp;temperature;humidity
37478;DHT22;23334;54.316;10.182;2022-10-17T04:02:47;11.70;99.90
37478;DHT22;23334;54.316;10.182;2022-10-17T04:05:12;11.80;99.90
37478;DHT22;23334;54.316;10.182;2022-10-17T04:07:38;11.70;99.90
37478;DHT22;23334;54.316;10.182;2022-10-17T04:10:04;11.70;99.90
37478;DHT22;23334;54.316;10.182;2022-10-17T04:12:29;11.80;99.90
37478;DHT22;23334;54.316;10.182;2022-10-17T04:14:55;11.80;99.90
37478;DHT22;23334;54.316;10.182;2022-10-17T04:17:20;11.80;99.90
37478;DHT22;23334;54.316;10.182;2022-10-17T04:19:47;11.70;99.90
37478;DHT22;23334;54.316;10.182;2022-10-17T04:22:13;11.70;99.90
37478;DHT22;23334;54.316;10.182;2022-10-17T04:24:38;11.80;99.90
37478;DHT22;23334;54.316;10.182;2022-10-17T04:27:04;11.80;99.90
37478;DHT22;23334;54.316;10.182;2022-10-17T04:29:29;11.80;99.90
37478;DHT22;23334;54.316;10.182;2022-10-17T04:31:55;11.80;99.90
37478;DHT22;23334;54.316;10.182;2022-10-17T04:34:20;11.70;99.90
37478;DHT22;23334;54.316;10.182;2022-10-17T04:36:46;11.70;99.90
37478;DHT22;23334;54.316;10.182;2022-10-17T04:39:12;11.70;99.90
37478;DHT22;23334;54.316;10.182;2022-10-17T04:41:37;11.60;99.90
37478;DHT22;23334;54.316;10.182;2022-10-17T04:44:03;11.80;99.90
37478;DHT22;23334;54.316;10.182;2022-10-17T04:46:28;12.00;99.90
37478;DHT22;23334;54.316;10.182;2022-10-17T04:48:54;11.90;99.90
37478;DHT22;23334;54.316;10.182;2022-10-17T04:51:19;12.00;99.90
37478;DHT22;23334;54.316;10.182;2022-10-17T04:53:45;12.00;99.90
37478;DHT22;23334;54.316;10.182;2022-10-17T04:56:18;12.10;99.90
37478;DHT22;23334;54.316;10.182;2022-10-17T04:58:45;12.10;99.90
37478;DHT22;23334;54.316;10.182;2022-10-17T05:01:14;12.00;99.90
37478;DHT22;23334;54.316;10.182;2022-10-17T05:03:40;11.80;99.90
37478;DHT22;23334;54.316;10.182;2022-10-17T05:06:09;11.90;99.90
37478;DHT22;23334;54.316;10.182;2022-10-17T05:08:35;11.90;99.90
37478;DHT22;23334;54.316;10.182;2022-10-17T05:11:00;12.10;99.90
37478;DHT22;23334;54.316;10.182;2022-10-17T05:13:26;12.20;99.90
37478;DHT22;23334;54.316;10.182;2022-10-17T05:15:52;11.70;99.90
37478;DHT22;23334;54.316;10.182;2022-10-17T05:18:18;12.10;99.90
37478;DHT22;23334;54.316;10.182;2022-10-17T05:20:43;12.10;99.90
37478;DHT22;23334;54.316;10.182;2022-10-17T05:23:09;11.90;99.90
37478;DHT22;23334;54.316;10.182;2022-10-17T05:25:34;12.10;99.90
37478;DHT22;23334;54.316;10.182;2022-10-17T05:28:00;12.10;99.90
37478;DHT22;23334;54.316;10.182;2022-10-17T05:30:25;12.10;99.90
37478;DHT22;23334;54.316;10.182;2022-10-17T05:32:52;12.10;99.90
37478;DHT22;23334;54.316;10.182;2022-10-17T05:35:19;12.00;99.90
37478;DHT22;23334;54.316;10.182;2022-10-17T05:37:45;11.70;99.90
37478;DHT22;23334;54.316;10.182;2022-10-17T05:40:11;12.00;99.90
37478;DHT22;23334;54.316;10.182;2022-10-17T05:42:36;12.00;99.90
37478;DHT22;23334;54.316;10.182;2022-10-17T05:45:02;11.80;99.90
37478;DHT22;23334;54.316;10.182;2022-10-17T05:47:27;11.80;99.90
37478;DHT22;23334;54.316;10.182;2022-10-17T05:49:53;11.80;99.90
37478;DHT22;23334;54.316;10.182;2022-10-17T05:52:18;11.80;99.90
37478;DHT22;23334;54.316;10.182;2022-10-17T05:54:44;11.90;99.90
37478;DHT22;23334;54.316;10.182;2022-10-17T05:57:09;11.80;99.90
37478;DHT22;23334;54.316;10.182;2022-10-17T05:59:35;11.90;99.90
37478;DHT22;23334;54.316;10.182;2022-10-17T06:02:00;12.00;99.90
37478;DHT22;23334;54.316;10.182;2022-10-17T06:04:27;11.90;99.90
37478;DHT22;23334;54.316;10.182;2022-10-17T06:06:53;12.10;99.90
37478;DHT22;23334;54.316;10.182;2022-10-17T06:09:20;11.80;99.90
37478;DHT22;23334;54.316;10.182;2022-10-17T06:11:48;11.90;99.90
37478;DHT22;23334;54.316;10.182;2022-10-17T06:14:14;12.20;99.90
37478;DHT22;23334;54.316;10.182;2022-10-17T06:16:39;12.10;99.90
37478;DHT22;23334;54.316;10.182;2022-10-17T06:19:05;11.90;99.90
37478;DHT22;23334;54.316;10.182;2022-10-17T06:21:31;12.30;99.90
37478;DHT22;23334;54.316;10.182;2022-10-17T06:24:00;12.30;99.90
37478;DHT22;23334;54.316;10.182;2022-10-17T06:26:26;12.40;99.90
37478;DHT22;23334;54.316;10.182;2022-10-17T06:28:53;12.40;99.90
37478;DHT22;23334;54.316;10.182;2022-10-17T06:31:18;12.50;99.90
37478;DHT22;23334;54.316;10.182;2022-10-17T06:33:44;12.50;99.90
37478;DHT22;23334;54.316;10.182;2022-10-17T06:36:12;12.50;99.90
37478;DHT22;23334;54.316;10.182;2022-10-17T06:38:40;12.20;99.90
37478;DHT22;23334;54.316;10.182;2022-10-17T06:41:13;12.60;99.90
37478;DHT22;23334;54.316;10.182;2022-10-17T06:43:41;12.60;99.90
37478;DHT22;23334;54.316;10.182;2022-10-17T06:46:17;12.80;99.90
37478;DHT22;23334;54.316;10.182;2022-10-17T06:48:44;12.60;99.90
37478;DHT22;23334;54.316;10.182;2022-10-17T06:51:10;12.80;99.90
37478;DHT22;23334;54.316;10.182;2022-10-17T06:53:38;12.80;99.90
37478;DHT22;23334;54.316;10.182;2022-10-17T06:56:05;12.60;99.90
37478;DHT22;23334;54.316;10.182;2022-10-17T06:58:32;13.10;99.90
37478;DHT22;23334;54.316;10.182;2022-10-17T07:01:00;12.80;99.90
37478;DHT22;23334;54.316;10.182;2022-10-17T07:03:26;13.20;99.90
37478;DHT22;23334;54.316;10.182;2022-10-17T07:05:53;13.40;99.90
37478;DHT22;23334;54.316;10.182;2022-10-17T07:08:18;13.10;99.90
37478;DHT22;23334;54.316;10.182;2022-10-17T07:10:45;13.70;99.90
37478;DHT22;23334;54.316;10.182;2022-10-17T07:13:11;13.80;99.90
37478;DHT22;23334;54.316;10.182;2022-10-17T07:15:37;13.80;99.90
37478;DHT22;23334;54.316;10.182;2022-10-17T07:18:03;14.10;99.90
37478;DHT22;23334;54.316;10.182;2022-10-17T07:20:28;14.20;99.90
37478;DHT22;23334;54.316;10.182;2022-10-17T07:22:54;14.30;99.90
37478;DHT22;23334;54.316;10.182;2022-10-17T07:25:20;14.40;99.90
37478;DHT22;23334;54.316;10.182;2022-10-17T07:27:47;14.60;99.90
37478;DHT22;23334;54.316;10.182;2022-10-17T07:30:13;14.10;99.90
37478;DHT22;23334;54.316;10.182;2022-10-17T07:32:38;14.90;99.90
37478;DHT22;23334;54.316;10.182;2022-10-17T07:35:04;15.10;99.90
37478;DHT22;23334;54.316;10.182;2022-10-17T07:37:29;15.30;99.90
37478;DHT22;23334;54.316;10.182;2022-10-17T07:39:55;15.30;99.90
37478;DHT22;23334;54.316;10.182;2022-10-17T07:42:21;15.50;99.90
37478;DHT22;23334;54.316;10.182;2022-10-17T07:44:47;15.10;99.90
37478;DHT22;23334;54.316;10.182;2022-10-17T07:47:12;15.60;99.90
37478;DHT22;23334;54.316;10.182;2022-10-17T07:49:38;15.60;99.90
37478;DHT22;23334;54.316;10.182;2022-10-17T07:52:09;15.70;99.90
37478;DHT22;23334;54.316;10.182;2022-10-17T07:54:36;15.50;99.90
37478;DHT22;23334;54.316;10.182;2022-10-17T07:57:01;16.00;99.90
37478;DHT22;23334;54.316;10.182;2022-10-17T07:59:27;16.50;99.90
37478;DHT22;23334;54.316;10.182;2022-10-17T08:01:55;16.70;99.90
37478;DHT22;23334;54.316;10.182;2022-10-17T08:04:21;16.70;99.90
37478;DHT22;23334;54.316;10.182;2022-10-17T08:06:48;16.70;99.90
37478;DHT22;23334;54.316;10.182;2022-10-17T08:09:14;16.90;99.90
37478;DHT22;23334;54.316;10.182;2022-10-17T08:11:39;17.10;99.90
37478;DHT22;23334;54.316;10.182;2022-10-17T08:14:07;17.20;99.90
37478;DHT22;23334;54.316;10.182;2022-10-17T08:16:32;17.40;99.90
37478;DHT22;23334;54.316;10.182;2022-10-17T08:18:58;17.60;99.90
37478;DHT22;23334;54.316;10.182;2022-10-17T08:21:26;17.00;99.90
37478;DHT22;23334;54.316;10.182;2022-10-17T08:23:52;17.60;99.90
37478;DHT22;23334;54.316;10.182;2022-10-17T08:26:18;17.70;99.90
37478;DHT22;23334;54.316;10.182;2022-10-17T08:28:45;17.50;99.90
37478;DHT22;23334;54.316;10.182;2022-10-17T08:31:14;16.90;99.90
37478;DHT22;23334;54.316;10.182;2022-10-17T08:33:41;16.90;99.90
37478;DHT22;23334;54.316;10.182;2022-10-17T08:36:08;16.60;99.90
37478;DHT22;23334;54.316;10.182;2022-10-17T08:38:35;17.10;99.90
37478;DHT22;23334;54.316;10.182;2022-10-17T08:41:04;16.60;99.90
37478;DHT22;23334;54.316;10.182;2022-10-17T08:43:48;17.30;99.90
37478;DHT22;23334;54.316;10.182;2022-10-17T08:46:19;17.60;99.90
37478;DHT22;23334;54.316;10.182;2022-10-17T08:48:48;15.90;99.90
37478;DHT22;23334;54.316;10.182;2022-10-17T08:51:23;17.20;99.90
37478;DHT22;23334;54.316;10.182;2022-10-17T08:54:00;17.60;99.90
37478;DHT22;23334;54.316;10.182;2022-10-17T08:56:41;16.80;99.90
37478;DHT22;23334;54.316;10.182;2022-10-17T08:59:18;16.60;99.90
37478;DHT22;23334;54.316;10.182;2022-10-17T09:04:33;16.90;99.90
37478;DHT22;23334;54.316;10.182;2022-10-17T09:07:31;16.80;99.90
37478;DHT22;23334;54.316;10.182;2022-10-17T09:10:14;16.40;99.90
37478;DHT22;23334;54.316;10.182;2022-10-17T09:13:05;16.60;99.90
37478;DHT22;23334;54.316;10.182;2022-10-17T09:18:40;16.60;99.90
37478;DHT22;23334;54.316;10.182;2022-10-17T09:21:25;16.30;99.90
37478;DHT22;23334;54.316;10.182;2022-10-17T09:23:58;16.80;99.90
37478;DHT22;23334;54.316;10.182;2022-10-17T09:26:25;16.80;99.90
37478;DHT22;23334;54.316;10.182;2022-10-17T09:28:54;16.90;99.90
37478;DHT22;23334;54.316;10.182;2022-10-17T09:31:37;18.60;99.90
37478;DHT22;23334;54.316;10.182;2022-10-17T09:34:09;20.70;99.90
37478;DHT22;23334;54.316;10.182;2022-10-17T09:36:37;22.40;99.90
37478;DHT22;23334;54.316;10.182;2022-10-17T09:39:04;23.10;99.90
37478;DHT22;23334;54.316;10.182;2022-10-17T09:41:40;23.80;99.90
37478;DHT22;23334;54.316;10.182;2022-10-17T09:44:15;24.40;99.90
37478;DHT22;23334;54.316;10.182;2022-10-17T09:46:46;25.00;99.90
37478;DHT22;23334;54.316;10.182;2022-10-17T09:49:20;25.00;99.90
37478;DHT22;23334;54.316;10.182;2022-10-17T09:51:47;24.30;99.90
37478;DHT22;23334;54.316;10.182;2022-10-17T09:54:19;24.50;99.90
37478;DHT22;23334;54.316;10.182;2022-10-17T09:57:07;24.80;99.90
37478;DHT22;23334;54.316;10.182;2022-10-17T09:59:36;24.70;99.90
37478;DHT22;23334;54.316;10.182;2022-10-17T10:05:01;24.50;99.90
37478;DHT22;23334;54.316;10.182;2022-10-17T10:07:34;24.00;99.90
37478;DHT22;23334;54.316;10.182;2022-10-17T10:10:02;23.50;99.90
37478;DHT22;23334;54.316;10.182;2022-10-17T10:12:33;22.70;99.90
37478;DHT22;23334;54.316;10.182;2022-10-17T10:14:59;22.00;99.90
37478;DHT22;23334;54.316;10.182;2022-10-17T10:20:00;22.50;99.90
37478;DHT22;23334;54.316;10.182;2022-10-17T10:22:26;23.90;99.90
37478;DHT22;23334;54.316;10.182;2022-10-17T10:25:15;24.40;99.90
37478;DHT22;23334;54.316;10.182;2022-10-17T10:27:43;24.80;99.90
37478;DHT22;23334;54.316;10.182;2022-10-17T10:30:18;24.40;99.90
37478;DHT22;23334;54.316;10.182;2022-10-17T10:32:47;23.80;99.90
37478;DHT22;23334;54.316;10.182;2022-10-17T10:35:30;23.90;99.90
37478;DHT22;23334;54.316;10.182;2022-10-17T10:37:57;23.50;99.90
37478;DHT22;23334;54.316;10.182;2022-10-17T10:42:59;22.60;99.90
37478;DHT22;23334;54.316;10.182;2022-10-17T10:45:40;22.00;99.90
37478;DHT22;23334;54.316;10.182;2022-10-17T10:50:55;21.60;99.90
37478;DHT22;23334;54.316;10.182;2022-10-17T10:56:13;21.70;99.90
37478;DHT22;23334;54.316;10.182;2022-10-17T10:59:02;21.60;99.90
37478;DHT22;23334;54.316;10.182;2022-10-17T11:01:52;21.40;99.90
37478;DHT22;23334;54.316;10.182;2022-10-17T11:04:52;21.40;99.90
37478;DHT22;23334;54.316;10.182;2022-10-17T11:07:49;21.10;99.90
37478;DHT22;23334;54.316;10.182;2022-10-17T11:10:28;20.80;99.90
37478;DHT22;23334;54.316;10.182;2022-10-17T11:13:13;20.60;99.90
37478;DHT22;23334;54.316;10.182;2022-10-17T11:18:39;20.80;99.90
37478;DHT22;23334;54.316;10.182;2022-10-17T11:21:16;20.90;99.90
37478;DHT22;23334;54.316;10.182;2022-10-17T11:24:04;20.70;99.90
37478;DHT22;23334;54.316;10.182;2022-10-17T11:26:37;20.70;99.90
37478;DHT22;23334;54.316;10.182;2022-10-17T11:29:05;20.60;99.90
37478;DHT22;23334;54.316;10.182;2022-10-17T11:31:36;20.80;99.90
37478;DHT22;23334;54.316;10.182;2022-10-17T11:34:13;20.40;99.90
37478;DHT22;23334;54.316;10.182;2022-10-17T11:36:46;20.40;99.90
37478;DHT22;23334;54.316;10.182;2022-10-17T11:39:17;20.20;99.90
37478;DHT22;23334;54.316;10.182;2022-10-17T11:41:53;20.80;99.90
37478;DHT22;23334;54.316;10.182;2022-10-17T11:44:40;20.20;99.90
37478;DHT22;23334;54.316;10.182;2022-10-17T11:47:25;20.50;99.90
37478;DHT22;23334;54.316;10.182;2022-10-17T11:50:22;20.80;99.90
37478;DHT22;23334;54.316;10.182;2022-10-17T11:53:18;20.70;99.90
37478;DHT22;23334;54.316;10.182;2022-10-17T11:55:45;20.70;99.90
37478;DHT22;23334;54.316;10.182;2022-10-17T11:58:38;20.30;99.90
37478;DHT22;23334;54.316;10.182;2022-10-17T12:01:43;20.50;99.90
37478;DHT22;23334;54.316;10.182;2022-10-17T12:04:39;20.40;99.90
37478;DHT22;23334;54.316;10.182;2022-10-17T12:07:47;20.50;99.90
37478;DHT22;23334;54.316;10.182;2022-10-17T12:10:51;20.80;99.90
37478;DHT22;23334;54.316;10.182;2022-10-17T12:22:01;20.70;99.90
37478;DHT22;23334;54.316;10.182;2022-10-17T12:24:39;21.40;99.90
37478;DHT22;23334;54.316;10.182;2022-10-17T12:27:32;21.10;99.90
37478;DHT22;23334;54.316;10.182;2022-10-17T12:30:14;20.80;99.90
37478;DHT22;23334;54.316;10.182;2022-10-17T12:35:31;20.80;99.90
37478;DHT22;23334;54.316;10.182;2022-10-17T12:38:01;20.30;99.90
37478;DHT22;23334;54.316;10.182;2022-10-17T12:43:00;19.90;99.90
37478;DHT22;23334;54.316;10.182;2022-10-17T12:45:44;20.10;99.90
37478;DHT22;23334;54.316;10.182;2022-10-17T12:48:18;22.00;99.90
37478;DHT22;23334;54.316;10.182;2022-10-17T12:51:09;20.00;99.90
37478;DHT22;23334;54.316;10.182;2022-10-17T12:53:52;19.80;99.90
37478;DHT22;23334;54.316;10.182;2022-10-17T12:59:11;19.90;99.90
37478;DHT22;23334;54.316;10.182;2022-10-17T13:01:43;19.80;99.90
37478;DHT22;23334;54.316;10.182;2022-10-17T13:04:09;19.20;99.90
37478;DHT22;23334;54.316;10.182;2022-10-17T13:06:39;19.50;99.90
37478;DHT22;23334;54.316;10.182;2022-10-17T16:42:27;16.50;99.90
37478;DHT22;23334;54.316;10.182;2022-10-17T16:44:53;16.20;99.90
37478;DHT22;23334;54.316;10.182;2022-10-17T16:47:18;16.10;99.90
37478;DHT22;23334;54.316;10.182;2022-10-17T16:49:44;16.20;99.90
37478;DHT22;23334;54.316;10.182;2022-10-17T16:52:10;16.20;99.90
37478;DHT22;23334;54.316;10.182;2022-10-17T16:54:35;16.20;99.90
37478;DHT22;23334;54.316;10.182;2022-10-17T16:57:03;17.50;99.90
37478;DHT22;23334;54.316;10.182;2022-10-17T16:59:28;16.10;99.90
37478;DHT22;23334;54.316;10.182;2022-10-17T17:01:54;16.10;99.90
37478;DHT22;23334;54.316;10.182;2022-10-17T17:04:20;15.70;99.90
37478;DHT22;23334;54.316;10.182;2022-10-17T17:06:45;16.00;99.90
37478;DHT22;23334;54.316;10.182;2022-10-17T17:09:11;16.20;99.90
37478;DHT22;23334;54.316;10.182;2022-10-17T17:11:37;16.00;99.90
37478;DHT22;23334;54.316;10.182;2022-10-17T17:14:03;15.70;99.90
37478;DHT22;23334;54.316;10.182;2022-10-17T17:16:31;15.80;99.90
37478;DHT22;23334;54.316;10.182;2022-10-17T17:18:59;15.40;99.90
37478;DHT22;23334;54.316;10.182;2022-10-17T17:21:26;15.80;99.90
37478;DHT22;23334;54.316;10.182;2022-10-17T17:23:53;15.60;99.90
37478;DHT22;23334;54.316;10.182;2022-10-17T17:26:21;15.50;99.90
37478;DHT22;23334;54.316;10.182;2022-10-17T17:28:47;15.40;99.90
37478;DHT22;23334;54.316;10.182;2022-10-17T17:31:18;15.70;99.90
37478;DHT22;23334;54.316;10.182;2022-10-17T17:33:45;15.60;99.90
37478;DHT22;23334;54.316;10.182;2022-10-17T17:36:15;15.70;99.90
37478;DHT22;23334;54.316;10.182;2022-10-17T17:38:42;15.40;99.90
37478;DHT22;23334;54.316;10.182;2022-10-17T17:41:14;15.50;99.90
37478;DHT22;23334;54.316;10.182;2022-10-17T17:43:40;15.60;99.90
37478;DHT22;23334;54.316;10.182;2022-10-17T17:46:05;15.70;99.90
37478;DHT22;23334;54.316;10.182;2022-10-17T17:48:31;15.20;99.90
37478;DHT22;23334;54.316;10.182;2022-10-17T17:50:56;15.70;99.90
37478;DHT22;23334;54.316;10.182;2022-10-17T17:53:26;15.50;99.90
37478;DHT22;23334;54.316;10.182;2022-10-17T17:56:10;15.30;99.90
37478;DHT22;23334;54.316;10.182;2022-10-17T17:58:39;15.60;99.90
37478;DHT22;23334;54.316;10.182;2022-10-17T18:01:15;15.70;99.90
37478;DHT22;23334;54.316;10.182;2022-10-17T18:03:44;15.40;99.90
37478;DHT22;23334;54.316;10.182;2022-10-17T18:06:10;15.10;99.90
37478;DHT22;23334;54.316;10.182;2022-10-17T18:08:35;15.80;99.90
37478;DHT22;23334;54.316;10.182;2022-10-17T18:11:01;15.70;99.90
37478;DHT22;23334;54.316;10.182;2022-10-17T18:13:27;15.20;99.90
37478;DHT22;23334;54.316;10.182;2022-10-17T18:15:57;15.40;99.90
37478;DHT22;23334;54.316;10.182;2022-10-17T18:18:25;15.10;99.90
37478;DHT22;23334;54.316;10.182;2022-10-17T18:20:51;15.50;99.90
37478;DHT22;23334;54.316;10.182;2022-10-17T18:23:16;15.40;99.90
37478;DHT22;23334;54.316;10.182;2022-10-17T18:25:51;15.20;99.90
37478;DHT22;23334;54.316;10.182;2022-10-17T18:28:17;15.10;99.90
37478;DHT22;23334;54.316;10.182;2022-10-17T18:30:43;15.50;99.90
37478;DHT22;23334;54.316;10.182;2022-10-17T18:33:08;15.50;99.90
37478;DHT22;23334;54.316;10.182;2022-10-17T18:35:34;15.40;99.90
37478;DHT22;23334;54.316;10.182;2022-10-17T18:37:59;15.50;99.90
37478;DHT22;23334;54.316;10.182;2022-10-17T18:40:25;15.60;99.90
37478;DHT22;23334;54.316;10.182;2022-10-17T18:42:52;15.30;99.90
37478;DHT22;23334;54.316;10.182;2022-10-17T18:45:18;15.40;99.90
37478;DHT22;23334;54.316;10.182;2022-10-17T18:47:44;15.50;99.90
37478;DHT22;23334;54.316;10.182;2022-10-17T18:50:12;15.30;99.90
37478;DHT22;23334;54.316;10.182;2022-10-17T18:52:37;15.00;99.90
37478;DHT22;23334;54.316;10.182;2022-10-17T18:55:03;15.20;99.90
37478;DHT22;23334;54.316;10.182;2022-10-17T18:57:28;15.00;99.90
37478;DHT22;23334;54.316;10.182;2022-10-17T18:59:55;14.90;99.90
37478;DHT22;23334;54.316;10.182;2022-10-17T19:02:21;15.10;99.90
37478;DHT22;23334;54.316;10.182;2022-10-17T19:04:46;15.10;99.90
37478;DHT22;23334;54.316;10.182;2022-10-17T19:07:12;15.10;99.90
37478;DHT22;23334;54.316;10.182;2022-10-17T19:09:39;15.20;99.90
37478;DHT22;23334;54.316;10.182;2022-10-17T19:12:05;15.00;99.90
37478;DHT22;23334;54.316;10.182;2022-10-17T19:14:30;14.90;99.90
37478;DHT22;23334;54.316;10.182;2022-10-17T19:16:56;15.10;99.90
37478;DHT22;23334;54.316;10.182;2022-10-17T19:19:25;14.90;99.90
37478;DHT22;23334;54.316;10.182;2022-10-17T19:21:51;14.90;99.90
37478;DHT22;23334;54.316;10.182;2022-10-17T19:24:20;14.60;99.90
37478;DHT22;23334;54.316;10.182;2022-10-17T19:26:47;14.60;99.90
37478;DHT22;23334;54.316;10.182;2022-10-17T19:29:18;14.30;99.90
37478;DHT22;23334;54.316;10.182;2022-10-17T19:31:44;14.40;99.90
37478;DHT22;23334;54.316;10.182;2022-10-17T19:34:11;14.70;99.90
37478;DHT22;23334;54.316;10.182;2022-10-17T19:36:37;14.50;99.90
37478;DHT22;23334;54.316;10.182;2022-10-17T19:39:06;15.00;99.90
37478;DHT22;23334;54.316;10.182;2022-10-17T19:41:33;14.60;99.90
37478;DHT22;23334;54.316;10.182;2022-10-17T19:43:59;14.70;99.90
37478;DHT22;23334;54.316;10.182;2022-10-17T19:46:26;14.80;99.90
37478;DHT22;23334;54.316;10.182;2022-10-17T19:48:52;14.80;99.90
37478;DHT22;23334;54.316;10.182;2022-10-17T19:51:19;14.80;99.90
37478;DHT22;23334;54.316;10.182;2022-10-17T19:53:49;14.10;99.90
37478;DHT22;23334;54.316;10.182;2022-10-17T19:56:15;14.30;99.90
37478;DHT22;23334;54.316;10.182;2022-10-17T19:58:45;14.20;99.90
37478;DHT22;23334;54.316;10.182;2022-10-17T20:01:16;14.60;99.90
37478;DHT22;23334;54.316;10.182;2022-10-17T20:06:08;13.40;99.90
37478;DHT22;23334;54.316;10.182;2022-10-17T20:08:34;14.30;99.90
37478;DHT22;23334;54.316;10.182;2022-10-17T20:11:08;14.10;99.90
37478;DHT22;23334;54.316;10.182;2022-10-17T20:13:35;14.30;99.90
37478;DHT22;23334;54.316;10.182;2022-10-17T20:16:01;14.60;99.90
37478;DHT22;23334;54.316;10.182;2022-10-17T20:18:27;14.00;99.90
37478;DHT22;23334;54.316;10.182;2022-10-17T20:20:53;14.80;99.90
37478;DHT22;23334;54.316;10.182;2022-10-17T20:23:19;14.50;99.90
37478;DHT22;23334;54.316;10.182;2022-10-17T20:25:44;14.40;99.90
37478;DHT22;23334;54.316;10.182;2022-10-17T20:30:36;14.50;99.90
37478;DHT22;23334;54.316;10.182;2022-10-17T20:33:02;14.40;99.90
37478;DHT22;23334;54.316;10.182;2022-10-17T20:35:27;14.40;99.90
37478;DHT22;23334;54.316;10.182;2022-10-17T20:37:53;14.40;99.90
37478;DHT22;23334;54.316;10.182;2022-10-17T20:40:18;14.30;99.90
37478;DHT22;23334;54.316;10.182;2022-10-17T20:42:44;14.40;99.90
37478;DHT22;23334;54.316;10.182;2022-10-17T20:45:10;14.30;99.90
37478;DHT22;23334;54.316;10.182;2022-10-17T20:47:36;14.40;99.90
37478;DHT22;23334;54.316;10.182;2022-10-17T20:50:02;14.60;99.90
37478;DHT22;23334;54.316;10.182;2022-10-17T20:52:27;14.30;99.90
37478;DHT22;23334;54.316;10.182;2022-10-17T20:54:53;14.90;99.90
37478;DHT22;23334;54.316;10.182;2022-10-17T20:57:18;14.40;99.90
37478;DHT22;23334;54.316;10.182;2022-10-17T20:59:44;14.80;99.90
37478;DHT22;23334;54.316;10.182;2022-10-17T21:02:11;14.60;99.90
37478;DHT22;23334;54.316;10.182;2022-10-17T21:04:37;14.50;99.90
37478;DHT22;23334;54.316;10.182;2022-10-17T21:07:03;14.80;99.90
37478;DHT22;23334;54.316;10.182;2022-10-17T21:09:29;14.90;99.90
37478;DHT22;23334;54.316;10.182;2022-10-17T21:11:54;14.50;99.90
37478;DHT22;23334;54.316;10.182;2022-10-17T21:14:21;14.60;99.90
37478;DHT22;23334;54.316;10.182;2022-10-17T21:16:48;15.10;99.90
37478;DHT22;23334;54.316;10.182;2022-10-17T21:19:15;14.50;99.90
37478;DHT22;23334;54.316;10.182;2022-10-17T21:21:43;14.70;99.90
37478;DHT22;23334;54.316;10.182;2022-10-17T21:24:13;14.10;99.90
37478;DHT22;23334;54.316;10.182;2022-10-17T21:26:41;14.60;99.90
37478;DHT22;23334;54.316;10.182;2022-10-17T21:29:11;14.20;99.90
37478;DHT22;23334;54.316;10.182;2022-10-17T21:31:39;14.30;99.90
37478;DHT22;23334;54.316;10.182;2022-10-17T21:34:10;14.10;99.90
37478;DHT22;23334;54.316;10.182;2022-10-17T21:36:36;14.30;99.90
37478;DHT22;23334;54.316;10.182;2022-10-17T21:39:03;14.30;99.90
37478;DHT22;23334;54.316;10.182;2022-10-17T21:41:29;14.10;99.90
37478;DHT22;23334;54.316;10.182;2022-10-17T21:44:00;14.30;99.90
37478;DHT22;23334;54.316;10.182;2022-10-17T21:46:26;14.20;99.90
37478;DHT22;23334;54.316;10.182;2022-10-17T21:48:51;14.30;99.90
37478;DHT22;23334;54.316;10.182;2022-10-17T21:51:20;14.30;99.90
37478;DHT22;23334;54.316;10.182;2022-10-17T21:53:47;13.90;99.90
37478;DHT22;23334;54.316;10.182;2022-10-17T21:56:17;14.60;99.90
37478;DHT22;23334;54.316;10.182;2022-10-17T21:58:44;14.10;99.90
37478;DHT22;23334;54.316;10.182;2022-10-17T22:01:13;13.90;99.90
37478;DHT22;23334;54.316;10.182;2022-10-17T22:03:49;14.00;99.90
37478;DHT22;23334;54.316;10.182;2022-10-17T22:06:18;14.20;99.90
37478;DHT22;23334;54.316;10.182;2022-10-17T22:08:43;13.90;99.90
37478;DHT22;23334;54.316;10.182;2022-10-17T22:11:13;14.10;99.90
37478;DHT22;23334;54.316;10.182;2022-10-17T22:13:41;14.10;99.90
37478;DHT22;23334;54.316;10.182;2022-10-17T22:16:09;14.30;99.90
37478;DHT22;23334;54.316;10.182;2022-10-17T22:18:35;14.50;99.90
37478;DHT22;23334;54.316;10.182;2022-10-17T22:21:06;14.30;99.90
37478;DHT22;23334;54.316;10.182;2022-10-17T22:23:32;14.20;99.90
37478;DHT22;23334;54.316;10.182;2022-10-17T22:25:59;14.10;99.90
37478;DHT22;23334;54.316;10.182;2022-10-17T22:28:28;14.20;99.90
37478;DHT22;23334;54.316;10.182;2022-10-17T22:30:54;14.10;99.90
37478;DHT22;23334;54.316;10.182;2022-10-17T22:33:19;14.30;99.90
37478;DHT22;23334;54.316;10.182;2022-10-17T22:35:45;14.20;99.90
37478;DHT22;23334;54.316;10.182;2022-10-17T22:38:12;14.00;99.90
37478;DHT22;23334;54.316;10.182;2022-10-17T22:40:38;13.90;99.90
37478;DHT22;23334;54.316;10.182;2022-10-17T22:45:30;14.30;99.90
37478;DHT22;23334;54.316;10.182;2022-10-17T22:47:55;14.00;99.90
37478;DHT22;23334;54.316;10.182;2022-10-17T22:50:22;14.10;99.90
37478;DHT22;23334;54.316;10.182;2022-10-17T22:52:47;13.90;99.90
37478;DHT22;23334;54.316;10.182;2022-10-17T22:55:13;14.10;99.90
37478;DHT22;23334;54.316;10.182;2022-10-17T22:57:39;13.90;99.90
37478;DHT22;23334;54.316;10.182;2022-10-17T23:00:06;14.10;99.90
37478;DHT22;23334;54.316;10.182;2022-10-17T23:02:32;14.20;99.90
37478;DHT22;23334;54.316;10.182;2022-10-17T23:04:58;13.90;99.90
37478;DHT22;23334;54.316;10.182;2022-10-17T23:07:24;14.00;99.90
37478;DHT22;23334;54.316;10.182;2022-10-17T23:09:50;13.90;99.90
37478;DHT22;23334;54.316;10.182;2022-10-17T23:12:15;14.00;99.90
37478;DHT22;23334;54.316;10.182;2022-10-17T23:14:41;14.30;99.90
